sensor_id;sensor_type;location;lat;lon;timestamp;P1;durP1;ratioP1;P2;durP2;ratioP2
69207;SDS011;56321;47.662;8.878;2023-02-08T00:01:32;17.33;;;8.07;;
69207;SDS011;56321;47.662;8.878;2023-02-08T00:03:57;16.83;;;7.37;;
69207;SDS011;56321;47.662;8.878;2023-02-08T00:06:22;18.27;;;8.23;;
69207;SDS011;56321;47.662;8.878;2023-02-08T00:08:47;18.80;;;8.60;;
69207;SDS011;56321;47.662;8.878;2023-02-08T00:11:13;18.70;;;8.30;;
69207;SDS011;56321;47.662;8.878;2023-02-08T00:13:39;17.30;;;7.63;;
69207;SDS011;56321;47.662;8.878;2023-02-08T00:16:05;17.08;;;7.80;;
69207;SDS011;56321;47.662;8.878;2023-02-08T00:18:31;17.90;;;8.18;;
69207;SDS011;56321;47.662;8.878;2023-02-08T00:20:56;18.27;;;8.40;;
69207;SDS011;56321;47.662;8.878;2023-02-08T00:23:22;20.07;;;7.90;;
69207;SDS011;56321;47.662;8.878;2023-02-08T00:25:48;16.90;;;7.43;;
69207;SDS011;56321;47.662;8.878;2023-02-08T00:28:14;16.43;;;7.47;;
69207;SDS011;56321;47.662;8.878;2023-02-08T00:30:41;16.40;;;7.68;;
69207;SDS011;56321;47.662;8.878;2023-02-08T00:33:07;19.48;;;8.07;;
69207;SDS011;56321;47.662;8.878;2023-02-08T00:35:33;17.73;;;7.77;;
69207;SDS011;56321;47.662;8.878;2023-02-08T00:37:58;17.87;;;8.03;;
69207;SDS011;56321;47.662;8.878;2023-02-08T00:40:24;18.67;;;8.20;;
69207;SDS011;56321;47.662;8.878;2023-02-08T00:42:50;16.83;;;7.93;;
69207;SDS011;56321;47.662;8.878;2023-02-08T00:45:15;18.73;;;8.40;;
69207;SDS011;56321;47.662;8.878;2023-02-08T00:47:41;17.10;;;7.80;;
69207;SDS011;56321;47.662;8.878;2023-02-08T00:50:06;16.87;;;7.40;;
69207;SDS011;56321;47.662;8.878;2023-02-08T00:52:33;17.98;;;7.53;;
69207;SDS011;56321;47.662;8.878;2023-02-08T00:54:58;18.03;;;8.07;;
69207;SDS011;56321;47.662;8.878;2023-02-08T00:57:24;18.33;;;7.80;;
69207;SDS011;56321;47.662;8.878;2023-02-08T00:59:49;17.80;;;7.60;;
69207;SDS011;56321;47.662;8.878;2023-02-08T01:02:14;17.63;;;7.87;;
69207;SDS011;56321;47.662;8.878;2023-02-08T01:04:40;18.00;;;7.50;;
69207;SDS011;56321;47.662;8.878;2023-02-08T01:07:06;18.30;;;7.82;;
69207;SDS011;56321;47.662;8.878;2023-02-08T01:09:31;15.67;;;7.20;;
69207;SDS011;56321;47.662;8.878;2023-02-08T01:11:57;18.17;;;7.95;;
69207;SDS011;56321;47.662;8.878;2023-02-08T01:14:23;17.00;;;7.73;;
69207;SDS011;56321;47.662;8.878;2023-02-08T01:16:49;17.98;;;7.82;;
69207;SDS011;56321;47.662;8.878;2023-02-08T01:19:14;16.93;;;7.23;;
69207;SDS011;56321;47.662;8.878;2023-02-08T01:21:40;18.87;;;7.40;;
69207;SDS011;56321;47.662;8.878;2023-02-08T01:24:06;17.15;;;7.75;;
69207;SDS011;56321;47.662;8.878;2023-02-08T01:26:32;15.77;;;6.75;;
69207;SDS011;56321;47.662;8.878;2023-02-08T01:28:58;17.87;;;8.00;;
69207;SDS011;56321;47.662;8.878;2023-02-08T01:31:25;18.47;;;7.07;;
69207;SDS011;56321;47.662;8.878;2023-02-08T01:33:56;17.17;;;7.40;;
69207;SDS011;56321;47.662;8.878;2023-02-08T01:36:22;18.55;;;7.63;;
69207;SDS011;56321;47.662;8.878;2023-02-08T01:38:48;17.80;;;7.53;;
69207;SDS011;56321;47.662;8.878;2023-02-08T01:41:18;16.93;;;7.20;;
69207;SDS011;56321;47.662;8.878;2023-02-08T01:46:38;15.63;;;6.80;;
69207;SDS011;56321;47.662;8.878;2023-02-08T01:49:12;16.05;;;6.85;;
69207;SDS011;56321;47.662;8.878;2023-02-08T01:51:46;16.08;;;6.80;;
69207;SDS011;56321;47.662;8.878;2023-02-08T01:54:14;18.30;;;6.93;;
69207;SDS011;56321;47.662;8.878;2023-02-08T01:56:43;16.83;;;7.00;;
69207;SDS011;56321;47.662;8.878;2023-02-08T01:59:13;16.07;;;7.03;;
69207;SDS011;56321;47.662;8.878;2023-02-08T02:01:44;16.70;;;6.90;;
69207;SDS011;56321;47.662;8.878;2023-02-08T02:04:11;18.55;;;7.38;;
69207;SDS011;56321;47.662;8.878;2023-02-08T02:06:41;16.58;;;7.15;;
69207;SDS011;56321;47.662;8.878;2023-02-08T02:09:18;14.90;;;6.75;;
69207;SDS011;56321;47.662;8.878;2023-02-08T02:11:49;16.50;;;7.57;;
69207;SDS011;56321;47.662;8.878;2023-02-08T02:14:15;16.55;;;6.95;;
69207;SDS011;56321;47.662;8.878;2023-02-08T02:16:41;15.73;;;6.82;;
69207;SDS011;56321;47.662;8.878;2023-02-08T02:19:09;16.13;;;7.33;;
69207;SDS011;56321;47.662;8.878;2023-02-08T02:22:04;17.15;;;7.22;;
69207;SDS011;56321;47.662;8.878;2023-02-08T02:25:26;16.58;;;7.15;;
69207;SDS011;56321;47.662;8.878;2023-02-08T02:27:33;16.73;;;7.28;;
69207;SDS011;56321;47.662;8.878;2023-02-08T02:33:00;17.83;;;7.57;;
69207;SDS011;56321;47.662;8.878;2023-02-08T02:35:59;17.30;;;7.13;;
69207;SDS011;56321;47.662;8.878;2023-02-08T02:41:13;14.35;;;6.28;;
69207;SDS011;56321;47.662;8.878;2023-02-08T02:44:31;15.27;;;6.80;;
69207;SDS011;56321;47.662;8.878;2023-02-08T02:47:11;16.00;;;6.57;;
69207;SDS011;56321;47.662;8.878;2023-02-08T02:52:34;19.27;;;7.68;;
69207;SDS011;56321;47.662;8.878;2023-02-08T02:55:10;14.85;;;6.40;;
69207;SDS011;56321;47.662;8.878;2023-02-08T02:57:39;17.67;;;7.07;;
69207;SDS011;56321;47.662;8.878;2023-02-08T03:00:10;16.38;;;6.65;;
69207;SDS011;56321;47.662;8.878;2023-02-08T03:02:37;15.50;;;6.55;;
69207;SDS011;56321;47.662;8.878;2023-02-08T03:05:04;16.23;;;6.87;;
69207;SDS011;56321;47.662;8.878;2023-02-08T03:07:53;17.58;;;7.05;;
69207;SDS011;56321;47.662;8.878;2023-02-08T03:13:52;15.07;;;6.38;;
69207;SDS011;56321;47.662;8.878;2023-02-08T03:22:32;18.58;;;6.97;;
69207;SDS011;56321;47.662;8.878;2023-02-08T03:25:02;17.42;;;6.60;;
69207;SDS011;56321;47.662;8.878;2023-02-08T03:27:48;16.27;;;6.47;;
69207;SDS011;56321;47.662;8.878;2023-02-08T03:33:14;19.30;;;6.95;;
69207;SDS011;56321;47.662;8.878;2023-02-08T03:35:51;16.75;;;6.30;;
69207;SDS011;56321;47.662;8.878;2023-02-08T03:38:24;15.25;;;6.43;;
69207;SDS011;56321;47.662;8.878;2023-02-08T03:40:53;15.25;;;6.53;;
69207;SDS011;56321;47.662;8.878;2023-02-08T03:43:26;18.13;;;7.30;;
69207;SDS011;56321;47.662;8.878;2023-02-08T03:45:57;15.93;;;6.60;;
69207;SDS011;56321;47.662;8.878;2023-02-08T03:48:27;15.27;;;6.38;;
69207;SDS011;56321;47.662;8.878;2023-02-08T03:50:55;16.42;;;6.82;;
69207;SDS011;56321;47.662;8.878;2023-02-08T03:53:22;15.48;;;6.20;;
69207;SDS011;56321;47.662;8.878;2023-02-08T03:55:50;16.87;;;7.00;;
69207;SDS011;56321;47.662;8.878;2023-02-08T03:58:24;16.65;;;6.47;;
69207;SDS011;56321;47.662;8.878;2023-02-08T04:00:56;14.73;;;6.40;;
69207;SDS011;56321;47.662;8.878;2023-02-08T04:03:26;17.33;;;7.10;;
69207;SDS011;56321;47.662;8.878;2023-02-08T04:05:54;16.63;;;6.75;;
69207;SDS011;56321;47.662;8.878;2023-02-08T04:08:19;17.03;;;6.60;;
69207;SDS011;56321;47.662;8.878;2023-02-08T04:10:45;18.02;;;7.10;;
69207;SDS011;56321;47.662;8.878;2023-02-08T04:13:12;15.90;;;6.50;;
69207;SDS011;56321;47.662;8.878;2023-02-08T04:15:37;17.57;;;6.77;;
69207;SDS011;56321;47.662;8.878;2023-02-08T04:18:02;15.85;;;6.68;;
69207;SDS011;56321;47.662;8.878;2023-02-08T04:20:28;17.23;;;7.00;;
69207;SDS011;56321;47.662;8.878;2023-02-08T04:22:53;16.97;;;7.03;;
69207;SDS011;56321;47.662;8.878;2023-02-08T04:25:18;14.80;;;6.23;;
69207;SDS011;56321;47.662;8.878;2023-02-08T04:27:44;15.37;;;6.30;;
69207;SDS011;56321;47.662;8.878;2023-02-08T04:30:09;16.77;;;6.50;;
69207;SDS011;56321;47.662;8.878;2023-02-08T04:32:35;15.90;;;6.25;;
69207;SDS011;56321;47.662;8.878;2023-02-08T04:35:01;15.20;;;6.67;;
69207;SDS011;56321;47.662;8.878;2023-02-08T04:37:26;16.43;;;6.57;;
69207;SDS011;56321;47.662;8.878;2023-02-08T04:39:52;16.45;;;6.88;;
69207;SDS011;56321;47.662;8.878;2023-02-08T04:42:17;16.67;;;6.37;;
69207;SDS011;56321;47.662;8.878;2023-02-08T04:44:42;17.00;;;6.63;;
69207;SDS011;56321;47.662;8.878;2023-02-08T04:47:08;16.27;;;6.37;;
69207;SDS011;56321;47.662;8.878;2023-02-08T04:49:33;16.77;;;6.53;;
69207;SDS011;56321;47.662;8.878;2023-02-08T04:51:58;15.80;;;6.67;;
69207;SDS011;56321;47.662;8.878;2023-02-08T04:54:24;15.90;;;6.70;;
69207;SDS011;56321;47.662;8.878;2023-02-08T04:56:49;17.03;;;6.50;;
69207;SDS011;56321;47.662;8.878;2023-02-08T04:59:15;16.25;;;6.32;;
69207;SDS011;56321;47.662;8.878;2023-02-08T05:01:40;19.13;;;7.30;;
69207;SDS011;56321;47.662;8.878;2023-02-08T05:04:06;16.27;;;6.40;;
69207;SDS011;56321;47.662;8.878;2023-02-08T05:06:31;17.83;;;6.80;;
69207;SDS011;56321;47.662;8.878;2023-02-08T05:08:57;17.85;;;6.53;;
69207;SDS011;56321;47.662;8.878;2023-02-08T05:11:22;16.60;;;6.83;;
69207;SDS011;56321;47.662;8.878;2023-02-08T05:13:50;16.13;;;6.68;;
69207;SDS011;56321;47.662;8.878;2023-02-08T05:16:16;15.63;;;6.60;;
69207;SDS011;56321;47.662;8.878;2023-02-08T05:18:41;16.67;;;6.70;;
69207;SDS011;56321;47.662;8.878;2023-02-08T05:21:07;16.42;;;6.47;;
69207;SDS011;56321;47.662;8.878;2023-02-08T05:23:33;17.00;;;7.20;;
69207;SDS011;56321;47.662;8.878;2023-02-08T05:25:58;16.58;;;6.68;;
69207;SDS011;56321;47.662;8.878;2023-02-08T05:28:24;17.00;;;6.87;;
69207;SDS011;56321;47.662;8.878;2023-02-08T05:30:49;17.97;;;7.07;;
69207;SDS011;56321;47.662;8.878;2023-02-08T05:33:14;16.63;;;6.70;;
69207;SDS011;56321;47.662;8.878;2023-02-08T05:35:40;18.98;;;7.60;;
69207;SDS011;56321;47.662;8.878;2023-02-08T05:38:06;16.80;;;6.63;;
69207;SDS011;56321;47.662;8.878;2023-02-08T05:40:31;17.83;;;6.70;;
69207;SDS011;56321;47.662;8.878;2023-02-08T05:42:57;15.85;;;6.30;;
69207;SDS011;56321;47.662;8.878;2023-02-08T05:45:22;15.63;;;6.20;;
69207;SDS011;56321;47.662;8.878;2023-02-08T05:47:48;15.27;;;6.45;;
69207;SDS011;56321;47.662;8.878;2023-02-08T05:50:14;15.60;;;6.80;;
69207;SDS011;56321;47.662;8.878;2023-02-08T05:52:39;15.38;;;6.32;;
69207;SDS011;56321;47.662;8.878;2023-02-08T05:55:05;18.53;;;7.73;;
69207;SDS011;56321;47.662;8.878;2023-02-08T05:57:31;15.97;;;6.50;;
69207;SDS011;56321;47.662;8.878;2023-02-08T05:59:56;16.37;;;6.57;;
69207;SDS011;56321;47.662;8.878;2023-02-08T06:02:21;15.35;;;6.82;;
69207;SDS011;56321;47.662;8.878;2023-02-08T06:04:47;16.00;;;6.57;;
69207;SDS011;56321;47.662;8.878;2023-02-08T06:07:12;15.70;;;6.40;;
69207;SDS011;56321;47.662;8.878;2023-02-08T06:09:38;16.40;;;6.90;;
69207;SDS011;56321;47.662;8.878;2023-02-08T06:12:03;16.13;;;6.87;;
69207;SDS011;56321;47.662;8.878;2023-02-08T06:14:29;17.47;;;6.87;;
69207;SDS011;56321;47.662;8.878;2023-02-08T06:16:54;17.27;;;6.67;;
69207;SDS011;56321;47.662;8.878;2023-02-08T06:19:20;15.53;;;6.20;;
69207;SDS011;56321;47.662;8.878;2023-02-08T06:21:45;16.57;;;6.90;;
69207;SDS011;56321;47.662;8.878;2023-02-08T06:24:10;16.60;;;7.10;;
69207;SDS011;56321;47.662;8.878;2023-02-08T06:26:37;16.02;;;6.60;;
69207;SDS011;56321;47.662;8.878;2023-02-08T06:29:03;18.67;;;7.23;;
69207;SDS011;56321;47.662;8.878;2023-02-08T06:31:28;17.83;;;7.27;;
69207;SDS011;56321;47.662;8.878;2023-02-08T06:33:53;17.00;;;6.93;;
69207;SDS011;56321;47.662;8.878;2023-02-08T06:36:19;16.70;;;7.10;;
69207;SDS011;56321;47.662;8.878;2023-02-08T06:38:44;16.17;;;7.00;;
69207;SDS011;56321;47.662;8.878;2023-02-08T06:41:09;17.63;;;6.90;;
69207;SDS011;56321;47.662;8.878;2023-02-08T06:43:34;17.53;;;6.63;;
69207;SDS011;56321;47.662;8.878;2023-02-08T06:46:00;16.43;;;6.20;;
69207;SDS011;56321;47.662;8.878;2023-02-08T06:48:28;18.27;;;6.78;;
69207;SDS011;56321;47.662;8.878;2023-02-08T06:50:54;17.90;;;6.90;;
69207;SDS011;56321;47.662;8.878;2023-02-08T06:53:20;16.40;;;6.80;;
69207;SDS011;56321;47.662;8.878;2023-02-08T06:55:49;17.13;;;7.20;;
69207;SDS011;56321;47.662;8.878;2023-02-08T06:58:14;16.88;;;7.18;;
69207;SDS011;56321;47.662;8.878;2023-02-08T07:00:40;17.43;;;7.57;;
69207;SDS011;56321;47.662;8.878;2023-02-08T07:03:06;16.60;;;7.10;;
69207;SDS011;56321;47.662;8.878;2023-02-08T07:05:34;19.13;;;7.77;;
69207;SDS011;56321;47.662;8.878;2023-02-08T07:08:00;17.10;;;7.20;;
69207;SDS011;56321;47.662;8.878;2023-02-08T07:10:26;16.33;;;6.70;;
69207;SDS011;56321;47.662;8.878;2023-02-08T07:12:51;17.17;;;6.50;;
69207;SDS011;56321;47.662;8.878;2023-02-08T07:15:16;16.10;;;6.70;;
69207;SDS011;56321;47.662;8.878;2023-02-08T07:17:42;16.63;;;6.40;;
69207;SDS011;56321;47.662;8.878;2023-02-08T07:20:07;17.17;;;6.97;;
69207;SDS011;56321;47.662;8.878;2023-02-08T07:22:33;17.55;;;7.50;;
69207;SDS011;56321;47.662;8.878;2023-02-08T07:24:58;18.00;;;7.27;;
69207;SDS011;56321;47.662;8.878;2023-02-08T07:27:24;16.10;;;6.73;;
69207;SDS011;56321;47.662;8.878;2023-02-08T07:29:49;19.13;;;8.20;;
69207;SDS011;56321;47.662;8.878;2023-02-08T07:32:14;18.97;;;8.00;;
69207;SDS011;56321;47.662;8.878;2023-02-08T07:34:40;25.77;;;12.27;;
69207;SDS011;56321;47.662;8.878;2023-02-08T07:37:06;25.67;;;12.93;;
69207;SDS011;56321;47.662;8.878;2023-02-08T07:39:32;18.52;;;9.57;;
69207;SDS011;56321;47.662;8.878;2023-02-08T07:41:57;18.07;;;9.07;;
69207;SDS011;56321;47.662;8.878;2023-02-08T07:44:23;16.80;;;7.78;;
69207;SDS011;56321;47.662;8.878;2023-02-08T07:46:49;18.53;;;8.63;;
69207;SDS011;56321;47.662;8.878;2023-02-08T07:49:14;18.58;;;8.70;;
69207;SDS011;56321;47.662;8.878;2023-02-08T07:51:40;19.23;;;8.00;;
69207;SDS011;56321;47.662;8.878;2023-02-08T07:54:05;18.57;;;7.80;;
69207;SDS011;56321;47.662;8.878;2023-02-08T07:56:31;17.37;;;7.83;;
69207;SDS011;56321;47.662;8.878;2023-02-08T07:58:56;16.87;;;8.00;;
69207;SDS011;56321;47.662;8.878;2023-02-08T08:01:21;19.37;;;7.43;;
69207;SDS011;56321;47.662;8.878;2023-02-08T08:03:47;16.20;;;7.20;;
69207;SDS011;56321;47.662;8.878;2023-02-08T08:06:13;16.98;;;7.85;;
69207;SDS011;56321;47.662;8.878;2023-02-08T08:08:39;15.70;;;7.73;;
69207;SDS011;56321;47.662;8.878;2023-02-08T08:11:04;16.93;;;7.73;;
69207;SDS011;56321;47.662;8.878;2023-02-08T08:13:30;17.33;;;7.72;;
69207;SDS011;56321;47.662;8.878;2023-02-08T08:15:55;16.70;;;7.83;;
69207;SDS011;56321;47.662;8.878;2023-02-08T08:18:20;18.33;;;7.73;;
69207;SDS011;56321;47.662;8.878;2023-02-08T08:20:46;16.70;;;8.37;;
69207;SDS011;56321;47.662;8.878;2023-02-08T08:23:11;17.37;;;8.57;;
69207;SDS011;56321;47.662;8.878;2023-02-08T08:25:37;16.55;;;8.55;;
69207;SDS011;56321;47.662;8.878;2023-02-08T08:28:03;17.93;;;9.17;;
69207;SDS011;56321;47.662;8.878;2023-02-08T08:30:28;17.27;;;8.35;;
69207;SDS011;56321;47.662;8.878;2023-02-08T08:32:54;15.97;;;8.23;;
69207;SDS011;56321;47.662;8.878;2023-02-08T08:35:19;17.23;;;8.17;;
69207;SDS011;56321;47.662;8.878;2023-02-08T08:37:44;16.53;;;8.27;;
69207;SDS011;56321;47.662;8.878;2023-02-08T08:40:10;15.50;;;7.90;;
69207;SDS011;56321;47.662;8.878;2023-02-08T08:42:36;15.80;;;7.47;;
69207;SDS011;56321;47.662;8.878;2023-02-08T08:45:03;15.65;;;8.27;;
69207;SDS011;56321;47.662;8.878;2023-02-08T08:47:29;17.42;;;8.48;;
69207;SDS011;56321;47.662;8.878;2023-02-08T08:49:55;17.87;;;8.53;;
69207;SDS011;56321;47.662;8.878;2023-02-08T08:52:20;15.70;;;8.17;;
69207;SDS011;56321;47.662;8.878;2023-02-08T08:54:46;15.87;;;8.73;;
69207;SDS011;56321;47.662;8.878;2023-02-08T08:57:11;16.40;;;8.70;;
69207;SDS011;56321;47.662;8.878;2023-02-08T08:59:36;16.30;;;8.30;;
69207;SDS011;56321;47.662;8.878;2023-02-08T09:02:02;15.80;;;8.83;;
69207;SDS011;56321;47.662;8.878;2023-02-08T09:04:27;16.83;;;8.97;;
69207;SDS011;56321;47.662;8.878;2023-02-08T09:06:53;17.50;;;9.40;;
69207;SDS011;56321;47.662;8.878;2023-02-08T09:09:19;15.32;;;8.75;;
69207;SDS011;56321;47.662;8.878;2023-02-08T09:11:45;16.30;;;9.20;;
69207;SDS011;56321;47.662;8.878;2023-02-08T09:14:11;16.58;;;9.35;;
69207;SDS011;56321;47.662;8.878;2023-02-08T09:16:38;16.17;;;8.97;;
69207;SDS011;56321;47.662;8.878;2023-02-08T09:19:05;16.23;;;9.20;;
69207;SDS011;56321;47.662;8.878;2023-02-08T09:21:32;17.00;;;9.43;;
69207;SDS011;56321;47.662;8.878;2023-02-08T09:23:59;17.52;;;8.98;;
69207;SDS011;56321;47.662;8.878;2023-02-08T09:26:25;17.07;;;9.50;;
69207;SDS011;56321;47.662;8.878;2023-02-08T09:28:51;17.77;;;9.75;;
69207;SDS011;56321;47.662;8.878;2023-02-08T09:31:24;18.10;;;10.30;;
69207;SDS011;56321;47.662;8.878;2023-02-08T09:33:55;16.60;;;9.45;;
69207;SDS011;56321;47.662;8.878;2023-02-08T09:36:22;19.65;;;9.90;;
69207;SDS011;56321;47.662;8.878;2023-02-08T09:38:53;16.52;;;9.75;;
69207;SDS011;56321;47.662;8.878;2023-02-08T09:47:21;16.90;;;9.57;;
69207;SDS011;56321;47.662;8.878;2023-02-08T09:49:53;16.33;;;9.40;;
69207;SDS011;56321;47.662;8.878;2023-02-08T09:52:24;17.80;;;10.02;;
69207;SDS011;56321;47.662;8.878;2023-02-08T09:54:56;19.20;;;9.83;;
69207;SDS011;56321;47.662;8.878;2023-02-08T09:57:26;15.52;;;9.65;;
69207;SDS011;56321;47.662;8.878;2023-02-08T09:59:56;17.20;;;10.10;;
69207;SDS011;56321;47.662;8.878;2023-02-08T10:02:26;17.35;;;10.35;;
69207;SDS011;56321;47.662;8.878;2023-02-08T10:04:58;21.73;;;12.90;;
69207;SDS011;56321;47.662;8.878;2023-02-08T10:07:29;16.47;;;10.47;;
69207;SDS011;56321;47.662;8.878;2023-02-08T10:09:55;17.70;;;10.45;;
69207;SDS011;56321;47.662;8.878;2023-02-08T10:12:30;17.60;;;10.63;;
69207;SDS011;56321;47.662;8.878;2023-02-08T10:28:33;17.10;;;10.27;;
69207;SDS011;56321;47.662;8.878;2023-02-08T10:34:18;16.73;;;9.53;;
69207;SDS011;56321;47.662;8.878;2023-02-08T10:36:53;17.80;;;10.60;;
69207;SDS011;56321;47.662;8.878;2023-02-08T10:39:26;17.75;;;10.45;;
69207;SDS011;56321;47.662;8.878;2023-02-08T10:41:54;18.08;;;9.60;;
69207;SDS011;56321;47.662;8.878;2023-02-08T10:44:33;17.77;;;10.05;;
69207;SDS011;56321;47.662;8.878;2023-02-08T10:50:00;15.88;;;9.38;;
69207;SDS011;56321;47.662;8.878;2023-02-08T10:52:29;18.35;;;10.50;;
69207;SDS011;56321;47.662;8.878;2023-02-08T10:54:57;17.93;;;10.30;;
69207;SDS011;56321;47.662;8.878;2023-02-08T10:57:24;16.92;;;10.77;;
69207;SDS011;56321;47.662;8.878;2023-02-08T11:00:01;16.00;;;10.10;;
69207;SDS011;56321;47.662;8.878;2023-02-08T11:02:34;17.17;;;10.80;;
69207;SDS011;56321;47.662;8.878;2023-02-08T11:05:07;16.00;;;10.18;;
69207;SDS011;56321;47.662;8.878;2023-02-08T11:07:35;17.87;;;10.60;;
69207;SDS011;56321;47.662;8.878;2023-02-08T11:12:54;16.77;;;10.88;;
69207;SDS011;56321;47.662;8.878;2023-02-08T11:15:21;15.93;;;10.67;;
69207;SDS011;56321;47.662;8.878;2023-02-08T11:17:52;16.90;;;11.20;;
69207;SDS011;56321;47.662;8.878;2023-02-08T11:20:20;16.65;;;11.30;;
69207;SDS011;56321;47.662;8.878;2023-02-08T11:22:47;18.05;;;11.40;;
69207;SDS011;56321;47.662;8.878;2023-02-08T11:25:29;15.93;;;11.33;;
69207;SDS011;56321;47.662;8.878;2023-02-08T11:28:04;16.48;;;11.18;;
69207;SDS011;56321;47.662;8.878;2023-02-08T11:30:30;15.95;;;10.98;;
69207;SDS011;56321;47.662;8.878;2023-02-08T11:33:12;17.57;;;11.60;;
69207;SDS011;56321;47.662;8.878;2023-02-08T11:35:38;16.00;;;11.02;;
69207;SDS011;56321;47.662;8.878;2023-02-08T11:38:04;14.90;;;10.27;;
69207;SDS011;56321;47.662;8.878;2023-02-08T11:40:36;15.57;;;10.53;;
69207;SDS011;56321;47.662;8.878;2023-02-08T11:43:15;16.35;;;11.00;;
69207;SDS011;56321;47.662;8.878;2023-02-08T11:45:49;15.90;;;10.63;;
69207;SDS011;56321;47.662;8.878;2023-02-08T11:48:20;14.88;;;11.13;;
69207;SDS011;56321;47.662;8.878;2023-02-08T11:50:57;16.27;;;10.73;;
69207;SDS011;56321;47.662;8.878;2023-02-08T11:53:35;17.00;;;10.45;;
69207;SDS011;56321;47.662;8.878;2023-02-08T11:56:13;15.65;;;10.27;;
69207;SDS011;56321;47.662;8.878;2023-02-08T11:58:54;15.60;;;11.17;;
69207;SDS011;56321;47.662;8.878;2023-02-08T12:01:28;16.20;;;10.70;;
69207;SDS011;56321;47.662;8.878;2023-02-08T12:03:57;16.27;;;11.18;;
69207;SDS011;56321;47.662;8.878;2023-02-08T12:22:18;15.73;;;11.13;;
69207;SDS011;56321;47.662;8.878;2023-02-08T12:24:49;15.83;;;10.83;;
69207;SDS011;56321;47.662;8.878;2023-02-08T12:33:09;15.40;;;10.35;;
69207;SDS011;56321;47.662;8.878;2023-02-08T12:35:51;14.40;;;10.07;;
69207;SDS011;56321;47.662;8.878;2023-02-08T12:44:44;15.20;;;9.63;;
69207;SDS011;56321;47.662;8.878;2023-02-08T12:47:47;15.32;;;10.13;;
69207;SDS011;56321;47.662;8.878;2023-02-08T12:53:01;15.17;;;9.40;;
69207;SDS011;56321;47.662;8.878;2023-02-08T12:55:33;14.23;;;8.50;;
69207;SDS011;56321;47.662;8.878;2023-02-08T12:58:09;16.00;;;10.25;;
69207;SDS011;56321;47.662;8.878;2023-02-08T13:00:46;15.38;;;9.90;;
69207;SDS011;56321;47.662;8.878;2023-02-08T13:03:29;14.98;;;9.30;;
69207;SDS011;56321;47.662;8.878;2023-02-08T13:06:07;15.33;;;9.67;;
69207;SDS011;56321;47.662;8.878;2023-02-08T13:08:52;22.85;;;11.10;;
69207;SDS011;56321;47.662;8.878;2023-02-08T13:11:26;15.77;;;8.90;;
69207;SDS011;56321;47.662;8.878;2023-02-08T13:14:02;16.73;;;10.40;;
69207;SDS011;56321;47.662;8.878;2023-02-08T13:16:40;15.82;;;9.20;;
69207;SDS011;56321;47.662;8.878;2023-02-08T13:21:54;15.73;;;9.20;;
69207;SDS011;56321;47.662;8.878;2023-02-08T13:26:55;16.02;;;8.68;;
69207;SDS011;56321;47.662;8.878;2023-02-08T13:29:21;16.50;;;8.87;;
69207;SDS011;56321;47.662;8.878;2023-02-08T13:31:52;15.65;;;8.25;;
69207;SDS011;56321;47.662;8.878;2023-02-08T13:37:02;15.32;;;8.02;;
69207;SDS011;56321;47.662;8.878;2023-02-08T13:39:33;14.73;;;7.53;;
69207;SDS011;56321;47.662;8.878;2023-02-08T13:42:04;15.82;;;7.82;;
69207;SDS011;56321;47.662;8.878;2023-02-08T13:44:33;15.82;;;8.15;;
69207;SDS011;56321;47.662;8.878;2023-02-08T13:47:01;15.83;;;8.27;;
69207;SDS011;56321;47.662;8.878;2023-02-08T13:49:42;15.10;;;7.53;;
69207;SDS011;56321;47.662;8.878;2023-02-08T13:57:55;16.13;;;8.07;;
69207;SDS011;56321;47.662;8.878;2023-02-08T14:02:57;16.30;;;7.80;;
69207;SDS011;56321;47.662;8.878;2023-02-08T14:08:04;16.58;;;7.47;;
69207;SDS011;56321;47.662;8.878;2023-02-08T14:10:32;17.10;;;7.53;;
69207;SDS011;56321;47.662;8.878;2023-02-08T14:13:04;15.40;;;7.33;;
69207;SDS011;56321;47.662;8.878;2023-02-08T14:15:43;15.18;;;7.80;;
69207;SDS011;56321;47.662;8.878;2023-02-08T14:18:22;14.90;;;7.10;;
69207;SDS011;56321;47.662;8.878;2023-02-08T14:20:59;15.88;;;7.40;;
69207;SDS011;56321;47.662;8.878;2023-02-08T14:23:29;14.52;;;6.78;;
69207;SDS011;56321;47.662;8.878;2023-02-08T14:25:57;16.17;;;7.35;;
69207;SDS011;56321;47.662;8.878;2023-02-08T14:28:38;16.02;;;7.10;;
69207;SDS011;56321;47.662;8.878;2023-02-08T14:31:10;14.63;;;7.30;;
69207;SDS011;56321;47.662;8.878;2023-02-08T14:33:41;14.63;;;6.85;;
69207;SDS011;56321;47.662;8.878;2023-02-08T14:36:30;14.93;;;6.95;;
69207;SDS011;56321;47.662;8.878;2023-02-08T14:41:48;13.68;;;6.40;;
69207;SDS011;56321;47.662;8.878;2023-02-08T14:44:56;16.03;;;6.87;;
69207;SDS011;56321;47.662;8.878;2023-02-08T14:50:03;15.15;;;7.15;;
69207;SDS011;56321;47.662;8.878;2023-02-08T14:52:36;14.73;;;6.90;;
69207;SDS011;56321;47.662;8.878;2023-02-08T14:55:07;14.82;;;6.60;;
69207;SDS011;56321;47.662;8.878;2023-02-08T14:57:41;14.27;;;6.50;;
69207;SDS011;56321;47.662;8.878;2023-02-08T15:00:15;14.15;;;6.28;;
69207;SDS011;56321;47.662;8.878;2023-02-08T15:02:45;14.48;;;6.72;;
69207;SDS011;56321;47.662;8.878;2023-02-08T15:05:24;13.85;;;6.72;;
69207;SDS011;56321;47.662;8.878;2023-02-08T15:07:54;15.85;;;7.03;;
69207;SDS011;56321;47.662;8.878;2023-02-08T15:10:22;15.50;;;7.17;;
69207;SDS011;56321;47.662;8.878;2023-02-08T15:12:49;13.57;;;6.72;;
69207;SDS011;56321;47.662;8.878;2023-02-08T15:15:21;16.33;;;7.97;;
69207;SDS011;56321;47.662;8.878;2023-02-08T15:17:50;17.42;;;8.15;;
69207;SDS011;56321;47.662;8.878;2023-02-08T15:20:18;15.98;;;7.70;;
69207;SDS011;56321;47.662;8.878;2023-02-08T15:22:45;16.90;;;7.50;;
69207;SDS011;56321;47.662;8.878;2023-02-08T15:25:25;15.18;;;7.47;;
69207;SDS011;56321;47.662;8.878;2023-02-08T15:28:37;16.17;;;7.33;;
69207;SDS011;56321;47.662;8.878;2023-02-08T15:30:57;16.50;;;7.70;;
69207;SDS011;56321;47.662;8.878;2023-02-08T15:33:33;16.55;;;7.70;;
69207;SDS011;56321;47.662;8.878;2023-02-08T15:36:04;15.77;;;7.63;;
69207;SDS011;56321;47.662;8.878;2023-02-08T15:38:31;16.08;;;7.60;;
69207;SDS011;56321;47.662;8.878;2023-02-08T15:41:06;19.20;;;9.37;;
69207;SDS011;56321;47.662;8.878;2023-02-08T15:43:33;18.77;;;7.70;;
69207;SDS011;56321;47.662;8.878;2023-02-08T15:46:03;20.58;;;8.80;;
69207;SDS011;56321;47.662;8.878;2023-02-08T15:48:31;18.02;;;8.75;;
69207;SDS011;56321;47.662;8.878;2023-02-08T15:50:57;17.65;;;8.95;;
69207;SDS011;56321;47.662;8.878;2023-02-08T15:53:24;21.53;;;9.40;;
69207;SDS011;56321;47.662;8.878;2023-02-08T15:56:00;18.85;;;9.63;;
69207;SDS011;56321;47.662;8.878;2023-02-08T15:58:34;18.50;;;9.82;;
69207;SDS011;56321;47.662;8.878;2023-02-08T16:01:04;19.50;;;9.35;;
69207;SDS011;56321;47.662;8.878;2023-02-08T16:03:31;19.20;;;9.45;;
69207;SDS011;56321;47.662;8.878;2023-02-08T16:06:02;19.43;;;8.70;;
69207;SDS011;56321;47.662;8.878;2023-02-08T16:08:31;21.70;;;10.45;;
69207;SDS011;56321;47.662;8.878;2023-02-08T16:11:09;19.48;;;9.60;;
69207;SDS011;56321;47.662;8.878;2023-02-08T16:13:38;19.55;;;9.43;;
69207;SDS011;56321;47.662;8.878;2023-02-08T16:16:20;20.02;;;9.68;;
69207;SDS011;56321;47.662;8.878;2023-02-08T16:18:59;19.17;;;9.23;;
69207;SDS011;56321;47.662;8.878;2023-02-08T16:26:32;18.85;;;9.27;;
69207;SDS011;56321;47.662;8.878;2023-02-08T16:29:04;19.50;;;9.55;;
69207;SDS011;56321;47.662;8.878;2023-02-08T16:31:32;18.77;;;9.30;;
69207;SDS011;56321;47.662;8.878;2023-02-08T16:34:05;19.77;;;9.25;;
69207;SDS011;56321;47.662;8.878;2023-02-08T16:36:41;20.13;;;9.70;;
69207;SDS011;56321;47.662;8.878;2023-02-08T16:44:23;22.37;;;9.47;;